sensor_id;sensor_type;location;lat;lon;timestamp;P1;durP1;ratioP1;P2;durP2;ratioP2
9815;SDS011;4947;44.526;11.360;2022-08-19T00:00:40;14.05;;;5.10;;
9815;SDS011;4947;44.526;11.360;2022-08-19T00:03:07;5.40;;;2.75;;
9815;SDS011;4947;44.526;11.360;2022-08-19T00:05:35;8.15;;;3.50;;
9815;SDS011;4947;44.526;11.360;2022-08-19T00:08:02;7.78;;;3.13;;
9815;SDS011;4947;44.526;11.360;2022-08-19T00:10:30;5.05;;;3.10;;
9815;SDS011;4947;44.526;11.360;2022-08-19T00:12:59;5.70;;;3.50;;
9815;SDS011;4947;44.526;11.360;2022-08-19T00:15:28;6.18;;;2.75;;
9815;SDS011;4947;44.526;11.360;2022-08-19T00:17:56;8.02;;;2.95;;
9815;SDS011;4947;44.526;11.360;2022-08-19T00:20:23;5.25;;;2.53;;
9815;SDS011;4947;44.526;11.360;2022-08-19T00:22:51;3.35;;;2.42;;
9815;SDS011;4947;44.526;11.360;2022-08-19T00:25:19;3.90;;;2.45;;
9815;SDS011;4947;44.526;11.360;2022-08-19T00:27:46;4.63;;;3.10;;
9815;SDS011;4947;44.526;11.360;2022-08-19T00:30:14;4.22;;;2.67;;
9815;SDS011;4947;44.526;11.360;2022-08-19T00:32:43;6.75;;;3.00;;
9815;SDS011;4947;44.526;11.360;2022-08-19T00:35:11;8.77;;;3.45;;
9815;SDS011;4947;44.526;11.360;2022-08-19T00:37:39;6.95;;;3.30;;
9815;SDS011;4947;44.526;11.360;2022-08-19T00:40:09;6.22;;;2.75;;
9815;SDS011;4947;44.526;11.360;2022-08-19T00:42:39;5.40;;;3.30;;
9815;SDS011;4947;44.526;11.360;2022-08-19T00:45:09;5.88;;;3.15;;
9815;SDS011;4947;44.526;11.360;2022-08-19T00:47:38;7.70;;;3.53;;
9815;SDS011;4947;44.526;11.360;2022-08-19T00:50:08;8.57;;;3.65;;
9815;SDS011;4947;44.526;11.360;2022-08-19T00:52:38;10.48;;;3.65;;
9815;SDS011;4947;44.526;11.360;2022-08-19T00:55:10;8.13;;;3.92;;
9815;SDS011;4947;44.526;11.360;2022-08-19T00:57:46;8.02;;;3.72;;
9815;SDS011;4947;44.526;11.360;2022-08-19T01:00:17;11.68;;;4.32;;
9815;SDS011;4947;44.526;11.360;2022-08-19T01:02:45;9.13;;;3.90;;
9815;SDS011;4947;44.526;11.360;2022-08-19T01:05:15;10.75;;;4.00;;
9815;SDS011;4947;44.526;11.360;2022-08-19T01:07:46;10.13;;;3.45;;
9815;SDS011;4947;44.526;11.360;2022-08-19T01:10:15;11.05;;;4.05;;
9815;SDS011;4947;44.526;11.360;2022-08-19T01:12:54;10.48;;;3.50;;
9815;SDS011;4947;44.526;11.360;2022-08-19T01:15:25;9.32;;;2.95;;
9815;SDS011;4947;44.526;11.360;2022-08-19T01:17:57;7.15;;;3.58;;
9815;SDS011;4947;44.526;11.360;2022-08-19T01:20:34;9.90;;;2.88;;
9815;SDS011;4947;44.526;11.360;2022-08-19T01:23:03;5.80;;;2.85;;
9815;SDS011;4947;44.526;11.360;2022-08-19T01:25:32;5.25;;;2.80;;
9815;SDS011;4947;44.526;11.360;2022-08-19T01:28:02;7.03;;;2.65;;
9815;SDS011;4947;44.526;11.360;2022-08-19T01:30:30;8.85;;;2.50;;
9815;SDS011;4947;44.526;11.360;2022-08-19T01:33:00;7.72;;;2.63;;
9815;SDS011;4947;44.526;11.360;2022-08-19T01:35:30;8.65;;;3.38;;
9815;SDS011;4947;44.526;11.360;2022-08-19T01:38:00;5.60;;;2.83;;
9815;SDS011;4947;44.526;11.360;2022-08-19T01:40:32;6.13;;;2.55;;
9815;SDS011;4947;44.526;11.360;2022-08-19T01:43:02;4.13;;;2.63;;
9815;SDS011;4947;44.526;11.360;2022-08-19T01:45:33;8.73;;;3.13;;
9815;SDS011;4947;44.526;11.360;2022-08-19T01:48:01;7.75;;;2.67;;
9815;SDS011;4947;44.526;11.360;2022-08-19T01:50:29;5.68;;;2.78;;
9815;SDS011;4947;44.526;11.360;2022-08-19T01:52:58;6.20;;;2.50;;
9815;SDS011;4947;44.526;11.360;2022-08-19T01:55:34;4.93;;;2.10;;
9815;SDS011;4947;44.526;11.360;2022-08-19T01:58:03;4.32;;;2.80;;
9815;SDS011;4947;44.526;11.360;2022-08-19T02:00:33;4.38;;;2.10;;
9815;SDS011;4947;44.526;11.360;2022-08-19T02:03:01;3.83;;;2.28;;
9815;SDS011;4947;44.526;11.360;2022-08-19T02:05:29;5.50;;;2.45;;
9815;SDS011;4947;44.526;11.360;2022-08-19T02:07:56;7.43;;;2.53;;
9815;SDS011;4947;44.526;11.360;2022-08-19T02:10:24;6.88;;;3.28;;
9815;SDS011;4947;44.526;11.360;2022-08-19T02:12:53;4.03;;;2.30;;
9815;SDS011;4947;44.526;11.360;2022-08-19T02:15:20;5.60;;;2.58;;
9815;SDS011;4947;44.526;11.360;2022-08-19T02:17:48;3.35;;;2.65;;
9815;SDS011;4947;44.526;11.360;2022-08-19T02:20:16;6.05;;;2.42;;
9815;SDS011;4947;44.526;11.360;2022-08-19T02:22:46;7.45;;;3.13;;
9815;SDS011;4947;44.526;11.360;2022-08-19T02:25:14;7.28;;;3.40;;
9815;SDS011;4947;44.526;11.360;2022-08-19T02:27:42;7.03;;;3.20;;
9815;SDS011;4947;44.526;11.360;2022-08-19T02:30:15;6.93;;;3.75;;
9815;SDS011;4947;44.526;11.360;2022-08-19T02:32:44;11.10;;;3.50;;
9815;SDS011;4947;44.526;11.360;2022-08-19T02:35:12;9.07;;;3.65;;
9815;SDS011;4947;44.526;11.360;2022-08-19T02:37:40;5.60;;;3.55;;
9815;SDS011;4947;44.526;11.360;2022-08-19T02:40:24;9.60;;;3.85;;
9815;SDS011;4947;44.526;11.360;2022-08-19T02:42:52;7.57;;;4.00;;
9815;SDS011;4947;44.526;11.360;2022-08-19T02:45:21;10.10;;;3.72;;
9815;SDS011;4947;44.526;11.360;2022-08-19T02:47:49;10.60;;;4.20;;
9815;SDS011;4947;44.526;11.360;2022-08-19T02:50:16;10.45;;;4.68;;
9815;SDS011;4947;44.526;11.360;2022-08-19T02:52:44;7.43;;;4.00;;
9815;SDS011;4947;44.526;11.360;2022-08-19T02:55:12;9.35;;;4.72;;
9815;SDS011;4947;44.526;11.360;2022-08-19T02:57:40;12.18;;;5.20;;
9815;SDS011;4947;44.526;11.360;2022-08-19T03:00:08;11.40;;;4.82;;
9815;SDS011;4947;44.526;11.360;2022-08-19T03:02:39;9.20;;;5.18;;
9815;SDS011;4947;44.526;11.360;2022-08-19T03:05:08;12.68;;;5.32;;
9815;SDS011;4947;44.526;11.360;2022-08-19T03:07:36;11.32;;;4.50;;
9815;SDS011;4947;44.526;11.360;2022-08-19T03:10:05;13.60;;;5.00;;
9815;SDS011;4947;44.526;11.360;2022-08-19T03:12:35;13.07;;;4.32;;
9815;SDS011;4947;44.526;11.360;2022-08-19T03:15:04;15.00;;;5.10;;
9815;SDS011;4947;44.526;11.360;2022-08-19T03:17:33;12.52;;;5.10;;
9815;SDS011;4947;44.526;11.360;2022-08-19T03:20:04;9.73;;;4.75;;
9815;SDS011;4947;44.526;11.360;2022-08-19T03:22:32;16.40;;;5.15;;
9815;SDS011;4947;44.526;11.360;2022-08-19T03:24:59;11.38;;;4.90;;
9815;SDS011;4947;44.526;11.360;2022-08-19T03:27:27;13.05;;;4.70;;
9815;SDS011;4947;44.526;11.360;2022-08-19T03:29:54;11.40;;;4.53;;
9815;SDS011;4947;44.526;11.360;2022-08-19T03:32:22;11.00;;;4.75;;
9815;SDS011;4947;44.526;11.360;2022-08-19T03:34:50;9.27;;;4.38;;
9815;SDS011;4947;44.526;11.360;2022-08-19T03:37:20;13.05;;;4.20;;
9815;SDS011;4947;44.526;11.360;2022-08-19T03:39:47;16.60;;;4.55;;
9815;SDS011;4947;44.526;11.360;2022-08-19T03:42:15;12.02;;;4.68;;
9815;SDS011;4947;44.526;11.360;2022-08-19T03:44:43;8.20;;;4.22;;
9815;SDS011;4947;44.526;11.360;2022-08-19T03:47:11;9.15;;;3.97;;
9815;SDS011;4947;44.526;11.360;2022-08-19T03:49:41;15.52;;;4.43;;
9815;SDS011;4947;44.526;11.360;2022-08-19T03:52:10;15.77;;;4.47;;
9815;SDS011;4947;44.526;11.360;2022-08-19T03:54:39;8.07;;;3.88;;
9815;SDS011;4947;44.526;11.360;2022-08-19T03:57:09;15.50;;;4.88;;
9815;SDS011;4947;44.526;11.360;2022-08-19T03:59:37;15.40;;;4.70;;
9815;SDS011;4947;44.526;11.360;2022-08-19T04:02:08;11.27;;;5.30;;
9815;SDS011;4947;44.526;11.360;2022-08-19T04:04:37;6.88;;;5.05;;
9815;SDS011;4947;44.526;11.360;2022-08-19T04:07:08;17.98;;;4.88;;
9815;SDS011;4947;44.526;11.360;2022-08-19T04:09:37;11.80;;;5.15;;
9815;SDS011;4947;44.526;11.360;2022-08-19T04:12:06;11.88;;;4.80;;
9815;SDS011;4947;44.526;11.360;2022-08-19T04:14:35;10.55;;;5.03;;
9815;SDS011;4947;44.526;11.360;2022-08-19T04:17:02;14.35;;;5.47;;
9815;SDS011;4947;44.526;11.360;2022-08-19T04:19:31;12.35;;;4.90;;
9815;SDS011;4947;44.526;11.360;2022-08-19T04:21:59;14.07;;;4.95;;
9815;SDS011;4947;44.526;11.360;2022-08-19T04:24:27;12.93;;;4.32;;
9815;SDS011;4947;44.526;11.360;2022-08-19T04:26:58;13.77;;;5.60;;
9815;SDS011;4947;44.526;11.360;2022-08-19T04:29:27;13.30;;;5.00;;
9815;SDS011;4947;44.526;11.360;2022-08-19T04:31:55;12.55;;;4.15;;
9815;SDS011;4947;44.526;11.360;2022-08-19T04:34:27;15.07;;;6.05;;
9815;SDS011;4947;44.526;11.360;2022-08-19T04:36:56;11.27;;;4.38;;
9815;SDS011;4947;44.526;11.360;2022-08-19T04:39:26;11.23;;;5.03;;
9815;SDS011;4947;44.526;11.360;2022-08-19T04:42:10;9.20;;;4.60;;
9815;SDS011;4947;44.526;11.360;2022-08-19T04:44:55;10.48;;;4.68;;
9815;SDS011;4947;44.526;11.360;2022-08-19T04:47:23;18.00;;;5.13;;
9815;SDS011;4947;44.526;11.360;2022-08-19T04:49:51;11.43;;;5.38;;
9815;SDS011;4947;44.526;11.360;2022-08-19T04:52:18;13.05;;;5.65;;
9815;SDS011;4947;44.526;11.360;2022-08-19T04:54:45;12.95;;;5.13;;
9815;SDS011;4947;44.526;11.360;2022-08-19T04:57:15;12.88;;;4.68;;
9815;SDS011;4947;44.526;11.360;2022-08-19T04:59:42;11.13;;;4.78;;
9815;SDS011;4947;44.526;11.360;2022-08-19T05:02:10;14.70;;;5.45;;
9815;SDS011;4947;44.526;11.360;2022-08-19T05:04:37;10.38;;;4.78;;
9815;SDS011;4947;44.526;11.360;2022-08-19T05:07:05;17.02;;;5.15;;
9815;SDS011;4947;44.526;11.360;2022-08-19T05:09:33;11.15;;;4.93;;
9815;SDS011;4947;44.526;11.360;2022-08-19T05:12:01;12.88;;;4.95;;
9815;SDS011;4947;44.526;11.360;2022-08-19T05:14:31;12.73;;;4.70;;
9815;SDS011;4947;44.526;11.360;2022-08-19T05:17:00;16.27;;;5.50;;
9815;SDS011;4947;44.526;11.360;2022-08-19T05:19:27;12.85;;;5.43;;
9815;SDS011;4947;44.526;11.360;2022-08-19T05:22:11;9.75;;;5.00;;
9815;SDS011;4947;44.526;11.360;2022-08-19T05:24:56;15.57;;;5.32;;
9815;SDS011;4947;44.526;11.360;2022-08-19T05:27:24;11.48;;;5.40;;
9815;SDS011;4947;44.526;11.360;2022-08-19T05:29:56;10.85;;;5.53;;
9815;SDS011;4947;44.526;11.360;2022-08-19T05:32:24;11.73;;;5.15;;
9815;SDS011;4947;44.526;11.360;2022-08-19T05:34:51;18.02;;;6.07;;
9815;SDS011;4947;44.526;11.360;2022-08-19T05:37:18;13.05;;;5.80;;
9815;SDS011;4947;44.526;11.360;2022-08-19T05:39:46;18.83;;;6.00;;
9815;SDS011;4947;44.526;11.360;2022-08-19T05:42:14;15.32;;;5.78;;
9815;SDS011;4947;44.526;11.360;2022-08-19T05:44:43;14.27;;;8.10;;
9815;SDS011;4947;44.526;11.360;2022-08-19T05:47:13;12.57;;;5.63;;
9815;SDS011;4947;44.526;11.360;2022-08-19T05:49:41;10.95;;;5.10;;
9815;SDS011;4947;44.526;11.360;2022-08-19T05:52:11;4.35;;;2.88;;
9815;SDS011;4947;44.526;11.360;2022-08-19T05:54:40;8.20;;;3.85;;
9815;SDS011;4947;44.526;11.360;2022-08-19T05:57:10;13.20;;;3.88;;
9815;SDS011;4947;44.526;11.360;2022-08-19T05:59:37;11.10;;;3.80;;
9815;SDS011;4947;44.526;11.360;2022-08-19T06:02:05;1.08;;;1.08;;
9815;SDS011;4947;44.526;11.360;2022-08-19T06:04:35;0.10;;;0.10;;
9815;SDS011;4947;44.526;11.360;2022-08-19T06:07:02;0.20;;;0.20;;
9815;SDS011;4947;44.526;11.360;2022-08-19T06:09:31;0.30;;;0.30;;
9815;SDS011;4947;44.526;11.360;2022-08-19T06:12:02;0.10;;;0.10;;
9815;SDS011;4947;44.526;11.360;2022-08-19T06:14:31;0.10;;;0.10;;
9815;SDS011;4947;44.526;11.360;2022-08-19T06:17:00;0.82;;;0.82;;
9815;SDS011;4947;44.526;11.360;2022-08-19T06:19:30;0.10;;;0.10;;
9815;SDS011;4947;44.526;11.360;2022-08-19T06:22:00;0.40;;;0.38;;
9815;SDS011;4947;44.526;11.360;2022-08-19T06:24:28;0.15;;;0.15;;
9815;SDS011;4947;44.526;11.360;2022-08-19T06:26:57;1.65;;;1.55;;
9815;SDS011;4947;44.526;11.360;2022-08-19T06:29:26;0.55;;;0.55;;
9815;SDS011;4947;44.526;11.360;2022-08-19T06:31:55;0.30;;;0.30;;
9815;SDS011;4947;44.526;11.360;2022-08-19T06:34:24;0.57;;;0.57;;
9815;SDS011;4947;44.526;11.360;2022-08-19T06:36:53;3.58;;;3.30;;
9815;SDS011;4947;44.526;11.360;2022-08-19T06:39:23;0.10;;;0.10;;
9815;SDS011;4947;44.526;11.360;2022-08-19T06:41:54;0.13;;;0.13;;
9815;SDS011;4947;44.526;11.360;2022-08-19T06:44:25;0.47;;;0.47;;
9815;SDS011;4947;44.526;11.360;2022-08-19T06:46:55;0.10;;;0.10;;
9815;SDS011;4947;44.526;11.360;2022-08-19T06:49:23;0.10;;;0.10;;
9815;SDS011;4947;44.526;11.360;2022-08-19T06:51:52;0.10;;;0.10;;
9815;SDS011;4947;44.526;11.360;2022-08-19T06:54:23;0.10;;;0.10;;
9815;SDS011;4947;44.526;11.360;2022-08-19T06:56:51;0.10;;;0.10;;
9815;SDS011;4947;44.526;11.360;2022-08-19T06:59:20;0.68;;;0.68;;
9815;SDS011;4947;44.526;11.360;2022-08-19T07:01:53;0.30;;;0.30;;
9815;SDS011;4947;44.526;11.360;2022-08-19T07:04:23;0.10;;;0.10;;
9815;SDS011;4947;44.526;11.360;2022-08-19T07:06:56;0.10;;;0.10;;
9815;SDS011;4947;44.526;11.360;2022-08-19T07:09:26;0.10;;;0.10;;
9815;SDS011;4947;44.526;11.360;2022-08-19T07:11:53;0.10;;;0.10;;
9815;SDS011;4947;44.526;11.360;2022-08-19T07:14:23;0.10;;;0.10;;
9815;SDS011;4947;44.526;11.360;2022-08-19T07:16:52;0.10;;;0.10;;
9815;SDS011;4947;44.526;11.360;2022-08-19T07:19:23;0.10;;;0.10;;
9815;SDS011;4947;44.526;11.360;2022-08-19T07:21:53;11.65;;;2.78;;
9815;SDS011;4947;44.526;11.360;2022-08-19T07:24:22;0.20;;;0.20;;
9815;SDS011;4947;44.526;11.360;2022-08-19T07:26:54;0.10;;;0.10;;
9815;SDS011;4947;44.526;11.360;2022-08-19T07:29:25;0.10;;;0.10;;
9815;SDS011;4947;44.526;11.360;2022-08-19T07:31:54;0.10;;;0.10;;
9815;SDS011;4947;44.526;11.360;2022-08-19T07:34:24;0.10;;;0.10;;
9815;SDS011;4947;44.526;11.360;2022-08-19T07:36:52;0.10;;;0.10;;
9815;SDS011;4947;44.526;11.360;2022-08-19T07:39:21;0.10;;;0.10;;
9815;SDS011;4947;44.526;11.360;2022-08-19T07:41:50;0.10;;;0.10;;
9815;SDS011;4947;44.526;11.360;2022-08-19T07:44:19;0.10;;;0.10;;
9815;SDS011;4947;44.526;11.360;2022-08-19T07:46:48;0.10;;;0.10;;
9815;SDS011;4947;44.526;11.360;2022-08-19T07:49:20;0.40;;;0.40;;
9815;SDS011;4947;44.526;11.360;2022-08-19T07:51:49;0.10;;;0.10;;
9815;SDS011;4947;44.526;11.360;2022-08-19T07:54:19;0.10;;;0.10;;
9815;SDS011;4947;44.526;11.360;2022-08-19T07:56:48;0.20;;;0.20;;
9815;SDS011;4947;44.526;11.360;2022-08-19T07:59:17;0.10;;;0.10;;
9815;SDS011;4947;44.526;11.360;2022-08-19T08:01:45;0.10;;;0.10;;
9815;SDS011;4947;44.526;11.360;2022-08-19T08:04:13;1.70;;;1.15;;
9815;SDS011;4947;44.526;11.360;2022-08-19T08:06:58;2.08;;;1.20;;
9815;SDS011;4947;44.526;11.360;2022-08-19T08:09:43;2.90;;;1.20;;
9815;SDS011;4947;44.526;11.360;2022-08-19T08:12:12;1.45;;;1.25;;
9815;SDS011;4947;44.526;11.360;2022-08-19T08:14:49;2.80;;;1.20;;
9815;SDS011;4947;44.526;11.360;2022-08-19T08:17:20;5.75;;;1.50;;
9815;SDS011;4947;44.526;11.360;2022-08-19T08:19:49;2.03;;;1.27;;
9815;SDS011;4947;44.526;11.360;2022-08-19T08:22:18;3.40;;;1.50;;
9815;SDS011;4947;44.526;11.360;2022-08-19T08:25:04;2.28;;;1.27;;
9815;SDS011;4947;44.526;11.360;2022-08-19T08:27:35;2.33;;;1.50;;
9815;SDS011;4947;44.526;11.360;2022-08-19T08:30:11;1.80;;;1.30;;
9815;SDS011;4947;44.526;11.360;2022-08-19T08:32:40;1.25;;;1.15;;
9815;SDS011;4947;44.526;11.360;2022-08-19T08:35:09;1.50;;;1.20;;
9815;SDS011;4947;44.526;11.360;2022-08-19T08:37:39;4.35;;;1.65;;
9815;SDS011;4947;44.526;11.360;2022-08-19T08:40:09;5.47;;;1.27;;
9815;SDS011;4947;44.526;11.360;2022-08-19T08:42:46;1.58;;;1.38;;
9815;SDS011;4947;44.526;11.360;2022-08-19T08:45:18;1.95;;;1.50;;
9815;SDS011;4947;44.526;11.360;2022-08-19T08:47:47;4.20;;;1.20;;
9815;SDS011;4947;44.526;11.360;2022-08-19T08:50:18;3.97;;;1.38;;
9815;SDS011;4947;44.526;11.360;2022-08-19T08:52:52;4.15;;;1.25;;
9815;SDS011;4947;44.526;11.360;2022-08-19T08:55:23;1.50;;;1.10;;
9815;SDS011;4947;44.526;11.360;2022-08-19T08:57:53;2.95;;;1.20;;
9815;SDS011;4947;44.526;11.360;2022-08-19T09:00:27;1.30;;;1.20;;
9815;SDS011;4947;44.526;11.360;2022-08-19T09:02:57;1.88;;;1.02;;
9815;SDS011;4947;44.526;11.360;2022-08-19T09:05:27;2.75;;;1.30;;
9815;SDS011;4947;44.526;11.360;2022-08-19T09:08:04;4.13;;;1.05;;
9815;SDS011;4947;44.526;11.360;2022-08-19T09:10:39;1.20;;;1.10;;
9815;SDS011;4947;44.526;11.360;2022-08-19T09:13:20;2.92;;;1.05;;
9815;SDS011;4947;44.526;11.360;2022-08-19T09:15:59;2.75;;;1.30;;
9815;SDS011;4947;44.526;11.360;2022-08-19T09:18:38;2.78;;;1.17;;
9815;SDS011;4947;44.526;11.360;2022-08-19T09:21:07;3.22;;;1.35;;
9815;SDS011;4947;44.526;11.360;2022-08-19T09:23:34;3.50;;;1.00;;
9815;SDS011;4947;44.526;11.360;2022-08-19T09:26:05;2.22;;;1.20;;
9815;SDS011;4947;44.526;11.360;2022-08-19T09:28:34;3.95;;;1.17;;
9815;SDS011;4947;44.526;11.360;2022-08-19T09:31:05;2.60;;;1.27;;
9815;SDS011;4947;44.526;11.360;2022-08-19T09:33:32;2.15;;;1.15;;
9815;SDS011;4947;44.526;11.360;2022-08-19T09:36:04;1.63;;;1.30;;
9815;SDS011;4947;44.526;11.360;2022-08-19T09:38:33;1.92;;;1.05;;
9815;SDS011;4947;44.526;11.360;2022-08-19T09:41:04;2.72;;;1.25;;
9815;SDS011;4947;44.526;11.360;2022-08-19T09:43:33;3.00;;;1.40;;
9815;SDS011;4947;44.526;11.360;2022-08-19T09:46:01;1.63;;;1.30;;
9815;SDS011;4947;44.526;11.360;2022-08-19T09:48:32;5.32;;;1.67;;
9815;SDS011;4947;44.526;11.360;2022-08-19T09:51:03;3.00;;;1.10;;
9815;SDS011;4947;44.526;11.360;2022-08-19T09:53:33;2.78;;;1.10;;
9815;SDS011;4947;44.526;11.360;2022-08-19T09:56:01;6.22;;;1.67;;
9815;SDS011;4947;44.526;11.360;2022-08-19T09:58:30;1.50;;;1.00;;
9815;SDS011;4947;44.526;11.360;2022-08-19T10:00:59;3.95;;;1.27;;
9815;SDS011;4947;44.526;11.360;2022-08-19T10:03:28;1.77;;;1.00;;
9815;SDS011;4947;44.526;11.360;2022-08-19T10:06:04;2.30;;;1.23;;
9815;SDS011;4947;44.526;11.360;2022-08-19T10:08:36;1.63;;;1.05;;
9815;SDS011;4947;44.526;11.360;2022-08-19T10:11:05;3.70;;;1.02;;
9815;SDS011;4947;44.526;11.360;2022-08-19T10:13:33;1.85;;;1.23;;
9815;SDS011;4947;44.526;11.360;2022-08-19T10:16:03;3.90;;;1.20;;
9815;SDS011;4947;44.526;11.360;2022-08-19T10:18:33;4.53;;;1.30;;
9815;SDS011;4947;44.526;11.360;2022-08-19T10:21:05;1.55;;;1.20;;
9815;SDS011;4947;44.526;11.360;2022-08-19T10:23:34;2.58;;;1.02;;
9815;SDS011;4947;44.526;11.360;2022-08-19T10:26:03;4.10;;;1.20;;
9815;SDS011;4947;44.526;11.360;2022-08-19T10:28:32;1.77;;;1.20;;
9815;SDS011;4947;44.526;11.360;2022-08-19T10:31:05;2.00;;;1.30;;
9815;SDS011;4947;44.526;11.360;2022-08-19T10:33:33;2.28;;;1.05;;
9815;SDS011;4947;44.526;11.360;2022-08-19T10:36:05;4.38;;;1.38;;
9815;SDS011;4947;44.526;11.360;2022-08-19T10:38:36;2.35;;;1.30;;
9815;SDS011;4947;44.526;11.360;2022-08-19T10:41:07;1.55;;;1.23;;
9815;SDS011;4947;44.526;11.360;2022-08-19T10:43:36;1.02;;;0.90;;
9815;SDS011;4947;44.526;11.360;2022-08-19T10:46:08;3.20;;;1.23;;
9815;SDS011;4947;44.526;11.360;2022-08-19T10:48:39;2.45;;;1.27;;
9815;SDS011;4947;44.526;11.360;2022-08-19T10:51:07;3.50;;;1.02;;
9815;SDS011;4947;44.526;11.360;2022-08-19T10:53:52;1.60;;;1.10;;
9815;SDS011;4947;44.526;11.360;2022-08-19T10:56:20;3.75;;;1.00;;
9815;SDS011;4947;44.526;11.360;2022-08-19T10:59:04;3.05;;;1.55;;
9815;SDS011;4947;44.526;11.360;2022-08-19T11:01:33;2.03;;;1.15;;
9815;SDS011;4947;44.526;11.360;2022-08-19T11:04:02;1.02;;;0.98;;
9815;SDS011;4947;44.526;11.360;2022-08-19T11:06:34;1.77;;;0.90;;
9815;SDS011;4947;44.526;11.360;2022-08-19T11:09:03;1.60;;;0.95;;
9815;SDS011;4947;44.526;11.360;2022-08-19T11:11:32;1.70;;;0.95;;
9815;SDS011;4947;44.526;11.360;2022-08-19T11:14:05;1.65;;;0.90;;
9815;SDS011;4947;44.526;11.360;2022-08-19T11:16:37;1.45;;;1.05;;
9815;SDS011;4947;44.526;11.360;2022-08-19T11:19:05;2.38;;;0.82;;
9815;SDS011;4947;44.526;11.360;2022-08-19T11:21:36;1.48;;;1.00;;
9815;SDS011;4947;44.526;11.360;2022-08-19T11:24:07;1.05;;;0.95;;
9815;SDS011;4947;44.526;11.360;2022-08-19T11:26:37;1.35;;;1.10;;
9815;SDS011;4947;44.526;11.360;2022-08-19T11:29:06;0.82;;;0.82;;
9815;SDS011;4947;44.526;11.360;2022-08-19T11:31:36;1.40;;;0.93;;
9815;SDS011;4947;44.526;11.360;2022-08-19T11:34:06;1.20;;;0.73;;
9815;SDS011;4947;44.526;11.360;2022-08-19T11:36:38;2.28;;;1.33;;
9815;SDS011;4947;44.526;11.360;2022-08-19T11:39:08;1.80;;;1.20;;
9815;SDS011;4947;44.526;11.360;2022-08-19T11:41:36;1.27;;;1.17;;
9815;SDS011;4947;44.526;11.360;2022-08-19T11:44:05;1.42;;;1.10;;
9815;SDS011;4947;44.526;11.360;2022-08-19T11:46:33;1.13;;;1.02;;
9815;SDS011;4947;44.526;11.360;2022-08-19T11:49:01;0.90;;;0.90;;
9815;SDS011;4947;44.526;11.360;2022-08-19T11:51:34;3.00;;;1.00;;
9815;SDS011;4947;44.526;11.360;2022-08-19T11:54:03;0.77;;;0.70;;
9815;SDS011;4947;44.526;11.360;2022-08-19T11:56:36;3.50;;;1.35;;
9815;SDS011;4947;44.526;11.360;2022-08-19T11:59:04;1.38;;;0.90;;
9815;SDS011;4947;44.526;11.360;2022-08-19T12:01:32;1.63;;;0.90;;
9815;SDS011;4947;44.526;11.360;2022-08-19T12:04:00;1.13;;;1.00;;
9815;SDS011;4947;44.526;11.360;2022-08-19T12:06:30;2.05;;;1.30;;
9815;SDS011;4947;44.526;11.360;2022-08-19T12:09:00;2.42;;;1.05;;
9815;SDS011;4947;44.526;11.360;2022-08-19T12:11:30;1.45;;;1.20;;
9815;SDS011;4947;44.526;11.360;2022-08-19T12:13:58;1.02;;;0.77;;
9815;SDS011;4947;44.526;11.360;2022-08-19T12:16:27;0.82;;;0.82;;
9815;SDS011;4947;44.526;11.360;2022-08-19T12:18:55;2.47;;;1.05;;
9815;SDS011;4947;44.526;11.360;2022-08-19T12:21:28;2.50;;;1.10;;
9815;SDS011;4947;44.526;11.360;2022-08-19T12:23:57;2.35;;;0.80;;
9815;SDS011;4947;44.526;11.360;2022-08-19T12:26:30;0.88;;;0.85;;
9815;SDS011;4947;44.526;11.360;2022-08-19T12:28:58;1.67;;;0.90;;
9815;SDS011;4947;44.526;11.360;2022-08-19T12:31:27;1.83;;;0.93;;
9815;SDS011;4947;44.526;11.360;2022-08-19T12:33:55;3.20;;;0.88;;
9815;SDS011;4947;44.526;11.360;2022-08-19T12:36:23;2.05;;;0.90;;
9815;SDS011;4947;44.526;11.360;2022-08-19T12:38:51;3.28;;;1.08;;
9815;SDS011;4947;44.526;11.360;2022-08-19T12:41:23;1.55;;;0.90;;
9815;SDS011;4947;44.526;11.360;2022-08-19T12:43:51;0.80;;;0.80;;
9815;SDS011;4947;44.526;11.360;2022-08-19T12:46:19;1.77;;;0.82;;
9815;SDS011;4947;44.526;11.360;2022-08-19T12:48:47;0.70;;;0.57;;
9815;SDS011;4947;44.526;11.360;2022-08-19T12:51:16;2.03;;;0.80;;
9815;SDS011;4947;44.526;11.360;2022-08-19T12:53:45;2.17;;;0.82;;
9815;SDS011;4947;44.526;11.360;2022-08-19T12:56:13;2.13;;;0.90;;
9815;SDS011;4947;44.526;11.360;2022-08-19T12:58:41;2.05;;;0.90;;
9815;SDS011;4947;44.526;11.360;2022-08-19T13:01:12;0.85;;;0.85;;
9815;SDS011;4947;44.526;11.360;2022-08-19T13:03:41;1.58;;;0.77;;
9815;SDS011;4947;44.526;11.360;2022-08-19T13:06:08;1.40;;;0.80;;
9815;SDS011;4947;44.526;11.360;2022-08-19T13:08:36;1.65;;;0.70;;
9815;SDS011;4947;44.526;11.360;2022-08-19T13:11:09;1.40;;;0.70;;
9815;SDS011;4947;44.526;11.360;2022-08-19T13:13:38;2.55;;;0.88;;
9815;SDS011;4947;44.526;11.360;2022-08-19T13:16:07;1.63;;;0.70;;
9815;SDS011;4947;44.526;11.360;2022-08-19T13:18:37;1.92;;;0.95;;
9815;SDS011;4947;44.526;11.360;2022-08-19T13:21:07;1.95;;;0.68;;
9815;SDS011;4947;44.526;11.360;2022-08-19T13:23:36;1.73;;;0.90;;
9815;SDS011;4947;44.526;11.360;2022-08-19T13:26:05;1.65;;;0.82;;
9815;SDS011;4947;44.526;11.360;2022-08-19T13:28:34;1.85;;;0.77;;
9815;SDS011;4947;44.526;11.360;2022-08-19T13:31:20;2.30;;;0.90;;
9815;SDS011;4947;44.526;11.360;2022-08-19T13:34:07;2.58;;;1.02;;
9815;SDS011;4947;44.526;11.360;2022-08-19T13:36:35;1.63;;;0.85;;
9815;SDS011;4947;44.526;11.360;2022-08-19T13:39:04;3.70;;;1.08;;
9815;SDS011;4947;44.526;11.360;2022-08-19T13:41:32;0.60;;;0.60;;
9815;SDS011;4947;44.526;11.360;2022-08-19T13:44:00;1.67;;;0.90;;
9815;SDS011;4947;44.526;11.360;2022-08-19T13:46:28;1.25;;;0.90;;
9815;SDS011;4947;44.526;11.360;2022-08-19T13:48:56;2.58;;;1.02;;
9815;SDS011;4947;44.526;11.360;2022-08-19T13:51:25;3.47;;;0.73;;
9815;SDS011;4947;44.526;11.360;2022-08-19T13:53:52;0.85;;;0.80;;
9815;SDS011;4947;44.526;11.360;2022-08-19T13:56:20;1.17;;;1.08;;
9815;SDS011;4947;44.526;11.360;2022-08-19T13:58:47;1.65;;;1.00;;
9815;SDS011;4947;44.526;11.360;2022-08-19T14:01:18;1.80;;;0.90;;
9815;SDS011;4947;44.526;11.360;2022-08-19T14:03:47;1.17;;;0.90;;
9815;SDS011;4947;44.526;11.360;2022-08-19T14:06:15;2.78;;;0.85;;
9815;SDS011;4947;44.526;11.360;2022-08-19T14:08:44;1.73;;;1.00;;
9815;SDS011;4947;44.526;11.360;2022-08-19T14:11:12;2.65;;;1.00;;
9815;SDS011;4947;44.526;11.360;2022-08-19T14:13:40;4.15;;;1.10;;
9815;SDS011;4947;44.526;11.360;2022-08-19T14:16:08;1.05;;;0.82;;
9815;SDS011;4947;44.526;11.360;2022-08-19T14:18:36;0.70;;;0.70;;
9815;SDS011;4947;44.526;11.360;2022-08-19T14:21:04;1.98;;;1.10;;
9815;SDS011;4947;44.526;11.360;2022-08-19T14:23:33;2.10;;;0.70;;
9815;SDS011;4947;44.526;11.360;2022-08-19T14:26:06;1.05;;;0.88;;
9815;SDS011;4947;44.526;11.360;2022-08-19T14:28:35;1.58;;;0.90;;
9815;SDS011;4947;44.526;11.360;2022-08-19T14:31:04;0.90;;;0.77;;
9815;SDS011;4947;44.526;11.360;2022-08-19T14:33:31;2.03;;;0.98;;
9815;SDS011;4947;44.526;11.360;2022-08-19T14:35:58;1.77;;;0.85;;
9815;SDS011;4947;44.526;11.360;2022-08-19T14:38:26;1.00;;;0.90;;
9815;SDS011;4947;44.526;11.360;2022-08-19T14:41:06;0.50;;;0.50;;
9815;SDS011;4947;44.526;11.360;2022-08-19T14:43:38;1.00;;;0.90;;
9815;SDS011;4947;44.526;11.360;2022-08-19T14:46:07;2.05;;;0.70;;
9815;SDS011;4947;44.526;11.360;2022-08-19T14:48:35;1.92;;;0.90;;
9815;SDS011;4947;44.526;11.360;2022-08-19T14:51:04;1.85;;;1.13;;
9815;SDS011;4947;44.526;11.360;2022-08-19T14:53:31;2.33;;;0.95;;
9815;SDS011;4947;44.526;11.360;2022-08-19T14:56:00;1.20;;;0.75;;
9815;SDS011;4947;44.526;11.360;2022-08-19T14:58:30;2.22;;;1.10;;
9815;SDS011;4947;44.526;11.360;2022-08-19T15:00:58;3.00;;;0.95;;
9815;SDS011;4947;44.526;11.360;2022-08-19T15:03:25;1.95;;;0.90;;
9815;SDS011;4947;44.526;11.360;2022-08-19T15:05:53;1.23;;;0.88;;
9815;SDS011;4947;44.526;11.360;2022-08-19T15:08:22;1.42;;;1.25;;
9815;SDS011;4947;44.526;11.360;2022-08-19T15:10:49;3.40;;;1.20;;
9815;SDS011;4947;44.526;11.360;2022-08-19T15:13:17;3.10;;;0.90;;